Terminal Aerodrome Forecast
Issued by NWS Twin Cities, MN

Home | Current Version | Previous Version | Graphics & Text | Print | Product List | Glossary On
Versions: 1 2 3 4 5 6 7 8 9 10 11 12 13 14 15 16
048
FTUS43 KMPX 081739
TAFSTC
TAF
KSTC 081739Z 0818/0918 32018G28KT 5SM -SN BLSN BKN025 BKN040
      TEMPO 0818/0821 2SM BLSN
     FM082200 32018G24KT 5SM BLSN OVC025
     FM090600 32014G20KT P6SM SCT035=

USA.gov is the U.S. government's official web portal to all federal, state and local government web resources and services.